Time;durP1;ratioP1;P1;durP2;ratioP2;P2;SDS_P1;SDS_P2;PMS_P1;PMS_P2;Temp;Humidity;BMP_temperature;BMP_pressure;BME280_temperature;BME280_humidity;BME280_pressure;Samples;Min_cycle;Max_cycle;Signal;HPM_P1;HPM_P2
2022/03/21 00:00:46;;;;;;;23.00;16.73;;;5.60;64.50;;;;;;5025991;28;20030;-68
2022/03/21 00:03:15;;;;;;;26.10;18.65;;;5.50;64.40;;;;;;5023553;28;20071;-68
2022/03/21 00:05:41;;;;;;;24.58;18.02;;;5.50;64.70;;;;;;5025583;28;20091;-68
2022/03/21 00:08:07;;;;;;;24.13;17.98;;;5.50;64.70;;;;;;5021027;28;20025;-68
2022/03/21 00:10:34;;;;;;;27.77;18.95;;;5.50;64.80;;;;;;5022998;28;20494;-68
2022/03/21 00:13:00;;;;;;;26.45;19.63;;;5.50;64.90;;;;;;5023801;28;20026;-68
2022/03/21 00:15:27;;;;;;;25.92;18.35;;;5.50;64.90;;;;;;5026503;28;20032;-68
2022/03/21 00:17:52;;;;;;;26.17;18.33;;;5.50;64.90;;;;;;5022260;28;20029;-70
2022/03/21 00:20:19;;;;;;;26.48;18.98;;;5.40;65.00;;;;;;5026829;28;20032;-70
2022/03/21 00:22:45;;;;;;;25.45;18.35;;;5.40;65.20;;;;;;5022316;28;20025;-70
2022/03/21 00:25:10;;;;;;;29.77;21.58;;;5.40;65.30;;;;;;5023884;28;20026;-69
2022/03/21 00:27:37;;;;;;;26.45;18.83;;;5.50;65.40;;;;;;5022266;28;20022;-69
2022/03/21 00:30:06;;;;;;;25.63;18.88;;;5.50;65.50;;;;;;5036154;28;20053;-69
2022/03/21 00:32:32;;;;;;;29.85;21.27;;;5.50;65.50;;;;;;5023842;28;20021;-69
2022/03/21 00:34:57;;;;;;;31.08;20.95;;;5.50;65.60;;;;;;5028175;28;20037;-69
2022/03/21 00:37:23;;;;;;;26.77;18.85;;;5.50;65.80;;;;;;5022841;28;20036;-69
2022/03/21 00:39:51;;;;;;;28.00;19.63;;;5.50;66.50;;;;;;5022326;28;20053;-69
2022/03/21 00:42:17;;;;;;;27.83;20.20;;;5.40;65.80;;;;;;5021941;28;20113;-69
2022/03/21 00:44:42;;;;;;;28.27;19.02;;;5.50;66.00;;;;;;5025327;28;20064;-69
2022/03/21 00:47:08;;;;;;;27.00;19.98;;;5.40;66.00;;;;;;5023298;28;20103;-68
2022/03/21 00:49:34;;;;;;;27.13;18.33;;;5.40;66.10;;;;;;5025700;28;20025;-68
2022/03/21 00:51:59;;;;;;;25.63;19.02;;;5.50;66.10;;;;;;5026413;28;20037;-68
2022/03/21 00:54:25;;;;;;;26.48;18.70;;;5.50;66.10;;;;;;5025229;28;20040;-68
2022/03/21 00:56:51;;;;;;;26.75;19.38;;;5.50;66.10;;;;;;5025054;28;20439;-71
2022/03/21 00:59:16;;;;;;;26.02;18.98;;;5.50;66.00;;;;;;5030035;28;20101;-68
2022/03/21 01:01:42;;;;;;;26.48;18.95;;;5.50;66.00;;;;;;5029807;28;20033;-68
2022/03/21 01:04:07;;;;;;;27.10;19.73;;;5.50;66.00;;;;;;5029852;28;20033;-69
2022/03/21 01:06:35;;;;;;;28.73;20.45;;;5.50;66.20;;;;;;5028738;28;20060;-69
2022/03/21 01:09:01;;;;;;;27.10;20.55;;;5.50;66.30;;;;;;5028375;28;20029;-69
2022/03/21 01:11:26;;;;;;;28.75;20.52;;;5.50;66.30;;;;;;5030047;28;20018;-68
2022/03/21 01:13:52;;;;;;;27.70;19.88;;;5.60;66.40;;;;;;5030143;28;20682;-68
2022/03/21 01:16:17;;;;;;;29.60;21.10;;;5.60;66.40;;;;;;5029522;28;20434;-68
2022/03/21 01:18:46;;;;;;;25.92;18.65;;;5.70;66.40;;;;;;5029812;28;20049;-69
2022/03/21 01:21:12;;;;;;;28.35;19.58;;;5.60;66.30;;;;;;5030024;28;20033;-69
2022/03/21 01:23:38;;;;;;;27.20;19.08;;;5.70;66.30;;;;;;5029698;28;20025;-68
2022/03/21 01:26:04;;;;;;;28.48;20.17;;;5.70;66.30;;;;;;5029996;28;20468;-70
2022/03/21 01:28:30;;;;;;;30.30;20.88;;;5.70;66.30;;;;;;5027941;28;20014;-69
2022/03/21 01:30:55;;;;;;;26.50;18.60;;;5.60;66.40;;;;;;5030100;28;20361;-70
2022/03/21 01:33:21;;;;;;;28.02;20.40;;;5.60;66.40;;;;;;5028484;28;20057;-69
2022/03/21 01:35:46;;;;;;;25.98;18.13;;;5.60;66.90;;;;;;5029775;28;20426;-70
2022/03/21 01:38:12;;;;;;;25.33;18.25;;;5.60;67.00;;;;;;5029113;28;20033;-68
2022/03/21 01:40:38;;;;;;;23.25;16.90;;;5.60;67.00;;;;;;5031481;28;20597;-68
2022/03/21 01:43:11;;;;;;;28.52;19.48;;;5.60;67.10;;;;;;5033429;28;20108;-69
2022/03/21 01:45:38;;;;;;;22.58;16.40;;;5.60;67.30;;;;;;5032670;28;20025;-68
2022/03/21 01:48:04;;;;;;;24.40;16.10;;;5.60;67.30;;;;;;5023325;28;20036;-68
2022/03/21 01:50:29;;;;;;;23.50;16.73;;;5.60;67.50;;;;;;5033432;28;20022;-69
2022/03/21 01:55:44;;;;;;;22.83;16.05;;;5.60;67.70;;;;;;5022947;28;20037;-69
2022/03/21 01:58:15;;;;;;;20.35;14.15;;;5.60;67.80;;;;;;5032476;28;20029;-68
2022/03/21 02:00:42;;;;;;;21.30;15.32;;;5.50;68.00;;;;;;5033278;28;20077;-68
2022/03/21 02:03:07;;;;;;;20.00;15.07;;;5.50;68.20;;;;;;5033031;28;20106;-70
2022/03/21 02:05:37;;;;;;;21.65;15.30;;;5.50;68.30;;;;;;5033128;28;20499;-69
2022/03/21 02:08:03;;;;;;;22.23;15.55;;;5.50;68.40;;;;;;5032354;28;20017;-69
2022/03/21 02:10:29;;;;;;;21.70;14.63;;;5.40;68.40;;;;;;5031994;28;20025;-70
2022/03/21 02:12:55;;;;;;;19.80;14.07;;;5.40;68.50;;;;;;5031569;28;20027;-70
2022/03/21 02:15:21;;;;;;;21.58;14.77;;;5.30;68.60;;;;;;5032905;28;20060;-69
2022/03/21 02:17:48;;;;;;;20.30;15.00;;;5.30;68.80;;;;;;5032516;28;20022;-70
2022/03/21 02:20:20;;;;;;;22.63;15.23;;;5.20;68.90;;;;;;5032389;28;20091;-69
2022/03/21 02:23:08;;;;;;;22.75;16.48;;;5.20;69.00;;;;;;5032378;28;20026;-69
2022/03/21 02:25:41;;;;;;;21.50;14.23;;;5.20;69.10;;;;;;5032593;28;20033;-69
2022/03/21 02:28:10;;;;;;;22.00;14.95;;;5.20;69.10;;;;;;5030992;28;20014;-69
2022/03/21 02:30:42;;;;;;;20.27;13.52;;;5.20;69.10;;;;;;5032733;28;20075;-69
2022/03/21 02:33:08;;;;;;;18.40;13.15;;;5.20;69.10;;;;;;5030818;28;20030;-70
2022/03/21 02:35:34;;;;;;;18.35;13.40;;;5.10;69.20;;;;;;5032819;28;20021;-69
2022/03/21 02:38:00;;;;;;;19.63;13.63;;;5.10;69.30;;;;;;5030611;28;20044;-69
2022/03/21 02:40:26;;;;;;;18.80;12.90;;;5.00;69.30;;;;;;5032295;28;20483;-70
2022/03/21 02:42:52;;;;;;;18.63;14.13;;;5.00;69.40;;;;;;5031282;28;20391;-69
2022/03/21 02:45:18;;;;;;;21.45;14.40;;;5.00;69.50;;;;;;5032394;28;20087;-70
2022/03/21 02:47:44;;;;;;;21.52;14.07;;;5.00;69.60;;;;;;5032032;28;20029;-69
2022/03/21 02:50:13;;;;;;;21.27;14.48;;;4.90;69.60;;;;;;5031929;28;20026;-70
2022/03/21 02:52:39;;;;;;;20.90;14.27;;;4.90;69.70;;;;;;5031830;28;20018;-70
2022/03/21 02:55:06;;;;;;;19.90;13.48;;;4.90;69.70;;;;;;5032674;28;20022;-69
2022/03/21 02:57:32;;;;;;;19.48;13.38;;;4.80;69.60;;;;;;5030629;28;20029;-69
2022/03/21 02:59:59;;;;;;;19.10;13.43;;;4.80;69.80;;;;;;5031855;28;20048;-69
2022/03/21 03:02:25;;;;;;;19.58;13.25;;;4.80;70.00;;;;;;5031777;28;20021;-69
2022/03/21 03:04:50;;;;;;;19.58;12.55;;;4.80;70.20;;;;;;5032373;28;20033;-69
2022/03/21 03:07:16;;;;;;;16.52;11.65;;;4.90;70.40;;;;;;5032176;28;20087;-69
2022/03/21 03:09:41;;;;;;;18.50;12.63;;;4.90;70.30;;;;;;5030316;28;20028;-70
2022/03/21 03:12:08;;;;;;;17.17;12.00;;;4.90;70.30;;;;;;5031551;28;20543;-69
2022/03/21 03:14:34;;;;;;;15.32;10.60;;;4.90;70.30;;;;;;5031359;28;20032;-68
2022/03/21 03:17:01;;;;;;;17.73;11.48;;;5.00;70.40;;;;;;5031957;28;20029;-68
2022/03/21 03:19:27;;;;;;;13.57;9.50;;;5.10;70.60;;;;;;5031279;28;20048;-69
2022/03/21 03:21:53;;;;;;;14.15;9.80;;;5.10;70.70;;;;;;5031485;28;20527;-69
2022/03/21 03:24:21;;;;;;;16.23;11.50;;;5.10;71.20;;;;;;5031653;28;20029;-69
2022/03/21 03:26:48;;;;;;;15.48;11.18;;;5.20;71.60;;;;;;5029731;28;20021;-69
2022/03/21 03:29:14;;;;;;;16.25;10.88;;;5.30;71.70;;;;;;5030029;28;20025;-69
2022/03/21 03:31:40;;;;;;;14.43;9.80;;;5.30;71.60;;;;;;5029579;28;20024;-69
2022/03/21 03:34:05;;;;;;;14.25;9.57;;;5.40;71.50;;;;;;5031559;28;20384;-68
2022/03/21 03:36:31;;;;;;;13.73;9.80;;;5.40;71.50;;;;;;5031228;28;20030;-68
2022/03/21 03:38:57;;;;;;;12.88;9.40;;;5.40;71.60;;;;;;5031077;28;20025;-69
2022/03/21 03:41:22;;;;;;;13.43;9.38;;;5.40;71.80;;;;;;5031359;28;20052;-69
2022/03/21 03:43:48;;;;;;;13.20;9.23;;;5.50;71.90;;;;;;5031593;28;20108;-69
2022/03/21 03:46:14;;;;;;;13.32;9.02;;;5.50;71.80;;;;;;5031048;28;20155;-68
2022/03/21 03:48:41;;;;;;;12.70;8.85;;;5.50;71.80;;;;;;5030555;28;20021;-69
2022/03/21 03:51:07;;;;;;;15.60;9.38;;;5.60;71.80;;;;;;5031208;28;20471;-68
2022/03/21 03:53:33;;;;;;;11.75;8.85;;;5.60;71.80;;;;;;5030605;28;20025;-69
2022/03/21 03:55:58;;;;;;;14.55;9.05;;;5.60;71.80;;;;;;5030935;28;20037;-69
2022/03/21 03:58:24;;;;;;;12.85;8.93;;;5.60;71.80;;;;;;5030984;28;20025;-69
2022/03/21 04:00:51;;;;;;;11.85;8.38;;;5.60;71.80;;;;;;5030725;28;20026;-70
2022/03/21 04:06:02;;;;;;;12.35;8.32;;;5.60;71.90;;;;;;5030597;28;20092;-70
2022/03/21 04:08:27;;;;;;;12.32;8.15;;;5.60;72.00;;;;;;5029330;28;20037;-69
2022/03/21 04:10:53;;;;;;;12.68;7.45;;;5.60;72.10;;;;;;5029031;28;20025;-70
2022/03/21 04:13:19;;;;;;;9.80;7.03;;;5.60;72.10;;;;;;5030410;28;20024;-69
2022/03/21 04:15:44;;;;;;;11.80;7.85;;;5.60;72.10;;;;;;5030194;28;20079;-70
2022/03/21 04:18:10;;;;;;;16.13;10.35;;;5.60;72.10;;;;;;5030735;28;20033;-68
2022/03/21 04:20:37;;;;;;;16.30;9.10;;;5.60;72.20;;;;;;5029911;28;20033;-70
2022/03/21 04:23:04;;;;;;;12.98;8.50;;;5.60;72.20;;;;;;5030470;28;20524;-70
2022/03/21 04:25:30;;;;;;;12.25;8.10;;;5.60;72.10;;;;;;5030366;28;20036;-68
2022/03/21 04:27:55;;;;;;;14.30;9.13;;;5.60;72.20;;;;;;5030075;28;20025;-68
2022/03/21 04:30:22;;;;;;;12.10;7.78;;;5.60;72.10;;;;;;5030051;28;20384;-69
2022/03/21 04:32:47;;;;;;;13.82;8.60;;;5.50;72.20;;;;;;5030414;28;20030;-70
2022/03/21 04:35:13;;;;;;;12.60;8.57;;;5.40;72.10;;;;;;5029983;28;20021;-70
2022/03/21 04:37:39;;;;;;;13.00;8.55;;;5.40;72.20;;;;;;5030262;28;20567;-70
2022/03/21 04:40:07;;;;;;;13.85;8.80;;;5.40;72.20;;;;;;5030080;28;20561;-70
2022/03/21 04:42:37;;;;;;;13.85;8.55;;;5.30;72.20;;;;;;5029957;28;20395;-70
2022/03/21 04:45:04;;;;;;;13.85;8.40;;;5.20;72.30;;;;;;5030025;28;20051;-69
2022/03/21 04:47:31;;;;;;;14.18;9.30;;;5.20;72.50;;;;;;5029562;28;20026;-68
2022/03/21 04:49:56;;;;;;;12.73;8.63;;;5.20;72.60;;;;;;5030257;28;20022;-68
2022/03/21 04:52:22;;;;;;;13.80;8.35;;;5.20;72.70;;;;;;5029786;28;20036;-68
2022/03/21 04:54:48;;;;;;;12.02;8.00;;;5.20;72.70;;;;;;5029798;28;20079;-70
2022/03/21 04:57:13;;;;;;;15.48;10.15;;;5.30;72.80;;;;;;5029784;28;20033;-69
2022/03/21 04:59:39;;;;;;;13.75;9.23;;;5.30;73.00;;;;;;5030061;28;20025;-69
2022/03/21 05:02:05;;;;;;;13.43;9.02;;;5.30;73.00;;;;;;5029871;28;20037;-68
2022/03/21 05:04:31;;;;;;;15.32;9.10;;;5.40;73.00;;;;;;5030305;28;20033;-69
2022/03/21 05:06:57;;;;;;;13.70;8.88;;;5.40;72.90;;;;;;5029717;28;20080;-69
2022/03/21 05:09:23;;;;;;;12.25;8.40;;;5.50;72.90;;;;;;5028445;28;20038;-69
2022/03/21 05:11:48;;;;;;;13.48;9.05;;;5.50;72.90;;;;;;5029350;28;20021;-68
2022/03/21 05:14:14;;;;;;;14.63;9.05;;;5.50;72.90;;;;;;5031153;28;20044;-68
2022/03/21 05:16:40;;;;;;;15.23;9.48;;;5.50;73.00;;;;;;5033848;28;20064;-68
2022/03/21 05:19:07;;;;;;;13.55;8.55;;;5.50;73.10;;;;;;5033769;28;20634;-69
2022/03/21 05:21:32;;;;;;;12.95;8.10;;;5.60;73.30;;;;;;5033817;28;20033;-70
2022/03/21 05:32:10;;;;;;;15.32;10.25;;;5.60;74.10;;;;;;5033807;28;20037;-69
2022/03/21 05:37:19;;;;;;;18.83;10.73;;;5.60;74.40;;;;;;5025897;28;20107;-69
2022/03/21 05:42:29;;;;;;;14.13;9.05;;;5.60;74.20;;;;;;5034107;28;20044;-69
2022/03/21 05:44:54;;;;;;;16.45;10.50;;;5.70;74.00;;;;;;5033443;28;20038;-68
2022/03/21 05:47:20;;;;;;;16.85;10.45;;;5.70;74.00;;;;;;5033011;28;20036;-68
2022/03/21 05:49:45;;;;;;;14.65;9.77;;;5.70;73.90;;;;;;5033758;28;20364;-69
2022/03/21 05:52:11;;;;;;;18.40;10.18;;;5.70;73.80;;;;;;5033482;28;20056;-69
2022/03/21 05:54:37;;;;;;;15.65;10.63;;;5.80;74.00;;;;;;5033560;28;20056;-70
2022/03/21 05:57:03;;;;;;;14.95;9.63;;;5.70;74.10;;;;;;5033455;28;20036;-70
2022/03/21 06:02:12;;;;;;;14.25;8.93;;;5.80;73.90;;;;;;5032760;28;20036;-69
2022/03/21 06:04:38;;;;;;;18.33;11.57;;;5.90;73.80;;;;;;5033271;28;20112;-69
2022/03/21 06:07:03;;;;;;;16.70;11.18;;;5.90;73.90;;;;;;5032607;28;20079;-70
2022/03/21 06:09:29;;;;;;;17.08;11.38;;;6.00;73.90;;;;;;5032205;28;20041;-70
2022/03/21 06:11:55;;;;;;;15.30;9.90;;;6.10;73.90;;;;;;5032479;28;20527;-69
2022/03/21 06:14:21;;;;;;;15.75;10.30;;;6.20;73.90;;;;;;5033033;28;20017;-69
2022/03/21 06:16:47;;;;;;;15.70;10.35;;;6.30;74.00;;;;;;5032634;28;20034;-69
2022/03/21 06:19:13;;;;;;;17.63;10.63;;;6.40;74.10;;;;;;5032351;28;20029;-69
2022/03/21 06:21:39;;;;;;;15.55;10.07;;;6.60;74.00;;;;;;5031534;28;20152;-68
2022/03/21 06:24:05;;;;;;;15.70;10.35;;;6.80;73.40;;;;;;5032365;28;20502;-68
2022/03/21 06:26:31;;;;;;;15.50;10.65;;;7.00;72.60;;;;;;5031126;28;20075;-69
2022/03/21 06:28:56;;;;;;;15.35;11.07;;;7.20;72.10;;;;;;5029726;28;20431;-69
2022/03/21 06:31:22;;;;;;;12.43;8.27;;;7.30;71.90;;;;;;5033200;28;20025;-70
2022/03/21 06:33:47;;;;;;;15.63;11.15;;;7.30;71.70;;;;;;5031737;28;20052;-70
2022/03/21 06:36:14;;;;;;;16.42;10.75;;;7.30;71.80;;;;;;5032220;28;20029;-69
2022/03/21 06:38:40;;;;;;;19.35;13.25;;;7.40;71.80;;;;;;5029560;28;20045;-70
2022/03/21 06:41:06;;;;;;;18.25;12.00;;;7.40;71.80;;;;;;5031020;28;20060;-70
2022/03/21 06:43:32;;;;;;;27.95;17.23;;;7.50;71.90;;;;;;5023914;28;20041;-71
2022/03/21 06:45:58;;;;;;;21.17;14.10;;;7.50;72.10;;;;;;5021468;28;20021;-71
2022/03/21 06:48:25;;;;;;;27.13;17.92;;;7.60;72.10;;;;;;5027581;28;20013;-70
2022/03/21 06:50:53;;;;;;;25.98;15.45;;;7.60;72.40;;;;;;5025844;28;20021;-71
2022/03/21 06:53:19;;;;;;;20.67;13.50;;;7.70;72.30;;;;;;5026791;28;20033;-70
2022/03/21 06:55:45;;;;;;;18.55;12.43;;;7.90;72.10;;;;;;5023522;28;20120;-71
2022/03/21 06:58:13;;;;;;;17.13;12.05;;;7.90;71.90;;;;;;5026905;28;20033;-70
2022/03/21 07:00:39;;;;;;;18.73;12.85;;;8.00;71.70;;;;;;5025814;28;20029;-70
2022/03/21 07:03:05;;;;;;;16.88;10.68;;;8.10;71.50;;;;;;5023181;28;20037;-70
2022/03/21 07:05:31;;;;;;;18.92;12.20;;;8.10;71.30;;;;;;5024780;28;20033;-70
2022/03/21 07:07:56;;;;;;;20.92;13.57;;;8.20;71.10;;;;;;5025073;28;20034;-70
2022/03/21 07:10:23;;;;;;;18.85;11.65;;;8.30;71.10;;;;;;5023885;28;20029;-69
2022/03/21 07:12:49;;;;;;;18.58;12.32;;;8.30;71.00;;;;;;5024942;28;20112;-70
2022/03/21 07:15:15;;;;;;;14.55;9.40;;;8.40;70.90;;;;;;5029230;28;20109;-69
2022/03/21 07:17:42;;;;;;;21.65;14.10;;;8.50;70.60;;;;;;5030665;28;20466;-69
2022/03/21 07:20:09;;;;;;;18.92;12.43;;;8.50;70.70;;;;;;5036904;28;20030;-68
2022/03/21 07:22:35;;;;;;;20.10;13.52;;;8.70;70.70;;;;;;5034108;28;20144;-68
2022/03/21 07:25:00;;;;;;;22.52;14.15;;;8.70;70.50;;;;;;5032748;28;20108;-69
2022/03/21 07:27:26;;;;;;;18.75;12.20;;;8.80;70.30;;;;;;5031607;28;20488;-69
2022/03/21 07:29:51;;;;;;;19.15;12.77;;;8.90;70.10;;;;;;5022213;28;20026;-70
2022/03/21 07:32:17;;;;;;;17.05;11.70;;;9.00;70.00;;;;;;5036682;28;20021;-69
2022/03/21 07:34:43;;;;;;;23.33;16.15;;;9.10;69.70;;;;;;5037642;28;20048;-69
2022/03/21 07:37:08;;;;;;;23.23;13.98;;;9.20;69.60;;;;;;5029526;28;20114;-69
2022/03/21 07:39:36;;;;;;;18.40;12.80;;;9.30;69.40;;;;;;5030748;28;20032;-69
2022/03/21 07:42:02;;;;;;;20.35;14.30;;;9.40;69.10;;;;;;5029407;28;20377;-69
2022/03/21 07:47:22;;;;;;;25.20;17.20;;;9.50;68.60;;;;;;5028906;28;20040;-69
2022/03/21 07:49:52;;;;;;;23.75;15.20;;;9.50;68.30;;;;;;5027448;28;20037;-68
2022/03/21 07:52:18;;;;;;;20.63;13.88;;;9.60;68.20;;;;;;5029674;28;20022;-69
2022/03/21 07:54:45;;;;;;;22.77;14.52;;;9.60;67.90;;;;;;5039929;28;20040;-69
2022/03/21 07:57:10;;;;;;;19.80;12.88;;;9.70;67.70;;;;;;5037168;28;20040;-69
2022/03/21 07:59:36;;;;;;;19.02;11.23;;;9.80;67.60;;;;;;5030434;28;20419;-69
2022/03/21 08:02:05;;;;;;;20.00;13.50;;;9.80;67.40;;;;;;5031734;28;20036;-68
2022/03/21 08:04:32;;;;;;;20.85;13.82;;;9.90;67.10;;;;;;5035374;28;20025;-69
2022/03/21 08:06:59;;;;;;;16.92;11.40;;;9.90;66.70;;;;;;5033038;28;20036;-69
2022/03/21 08:09:27;;;;;;;16.13;10.25;;;10.00;66.40;;;;;;5032764;28;20041;-69
2022/03/21 08:11:54;;;;;;;15.73;10.70;;;10.10;66.00;;;;;;5027771;28;20017;-69
2022/03/21 08:14:20;;;;;;;16.90;10.68;;;10.20;65.60;;;;;;5031129;28;20101;-68
2022/03/21 08:16:45;;;;;;;12.93;8.95;;;10.20;65.30;;;;;;5039333;28;20100;-69
2022/03/21 08:19:11;;;;;;;14.93;10.45;;;10.30;65.00;;;;;;5035238;28;20017;-68
2022/03/21 08:21:36;;;;;;;14.90;10.40;;;10.40;64.60;;;;;;5045460;28;20037;-69
2022/03/21 08:24:03;;;;;;;16.65;11.38;;;10.50;64.10;;;;;;5042259;28;20402;-69
2022/03/21 08:26:29;;;;;;;19.35;11.75;;;10.50;63.70;;;;;;5045395;28;20017;-69
2022/03/21 08:28:54;;;;;;;16.67;10.10;;;10.60;62.80;;;;;;5034970;28;20108;-68
2022/03/21 08:31:20;;;;;;;15.95;10.27;;;10.60;62.70;;;;;;5032117;28;20478;-68
2022/03/21 08:33:45;;;;;;;15.98;11.13;;;10.70;62.70;;;;;;5034742;28;20033;-68
2022/03/21 08:36:12;;;;;;;16.38;11.00;;;10.70;62.40;;;;;;5031618;28;20043;-69
2022/03/21 08:38:38;;;;;;;16.02;10.75;;;10.90;62.20;;;;;;5030621;28;20031;-68
2022/03/21 08:41:03;;;;;;;12.32;7.63;;;10.90;61.90;;;;;;5026974;28;20033;-70
2022/03/21 08:43:29;;;;;;;17.50;10.77;;;11.00;62.10;;;;;;5027117;28;20653;-69
2022/03/21 08:45:55;;;;;;;18.48;10.68;;;11.00;61.30;;;;;;5028463;28;20034;-69
2022/03/21 08:49:23;;;;;;;15.90;10.45;;;11.10;61.00;;;;;;5031736;28;20533;-68
2022/03/21 08:51:06;;;;;;;14.57;10.30;;;11.10;60.30;;;;;;5025263;28;20037;-69
2022/03/21 08:53:32;;;;;;;15.30;9.75;;;11.10;60.40;;;;;;5026357;28;20022;-69
2022/03/21 08:55:58;;;;;;;15.77;11.02;;;11.20;60.50;;;;;;5031607;28;20033;-69
2022/03/21 08:58:23;;;;;;;16.50;11.13;;;11.30;60.40;;;;;;5032596;28;20025;-68
2022/03/21 09:00:49;;;;;;;16.88;10.93;;;11.30;59.70;;;;;;5030645;28;20035;-68
2022/03/21 09:03:14;;;;;;;18.52;11.75;;;11.40;59.70;;;;;;5028133;28;20024;-68
2022/03/21 09:05:40;;;;;;;16.83;10.88;;;11.40;59.70;;;;;;5028300;28;20413;-68
2022/03/21 09:08:08;;;;;;;12.57;9.00;;;11.40;59.40;;;;;;5031754;28;20018;-68
2022/03/21 09:10:34;;;;;;;16.20;9.57;;;11.50;59.60;;;;;;5029959;28;20168;-68
2022/03/21 09:12:59;;;;;;;16.02;9.82;;;11.60;59.20;;;;;;5030013;28;20124;-69
2022/03/21 09:15:26;;;;;;;17.98;10.85;;;11.60;58.50;;;;;;5032804;28;20034;-69
2022/03/21 09:17:51;;;;;;;15.88;9.95;;;11.70;58.50;;;;;;5031408;28;20021;-69
2022/03/21 09:20:17;;;;;;;13.60;9.07;;;11.80;58.50;;;;;;5032533;28;20088;-69
2022/03/21 09:22:42;;;;;;;21.05;12.88;;;11.90;58.60;;;;;;5025156;28;20423;-69
2022/03/21 09:25:08;;;;;;;19.08;11.90;;;11.90;57.70;;;;;;5031013;28;20036;-69
2022/03/21 09:27:38;;;;;;;22.25;13.43;;;12.00;57.70;;;;;;5033519;28;20032;-69
2022/03/21 09:30:05;;;;;;;16.05;10.90;;;12.10;57.20;;;;;;5028542;28;20042;-69
2022/03/21 09:32:31;;;;;;;20.45;12.48;;;12.10;56.90;;;;;;5032146;28;20021;-69
2022/03/21 09:34:56;;;;;;;17.25;11.70;;;12.20;55.90;;;;;;5032874;28;20029;-69
2022/03/21 09:37:22;;;;;;;20.80;12.55;;;12.20;55.70;;;;;;5034184;28;20061;-68
2022/03/21 09:39:49;;;;;;;18.67;12.07;;;12.20;55.20;;;;;;5032377;28;20036;-69
2022/03/21 09:42:15;;;;;;;14.55;9.85;;;12.30;55.40;;;;;;5034970;28;20084;-69
2022/03/21 09:44:40;;;;;;;23.52;13.80;;;12.40;55.50;;;;;;5032599;28;20384;-69
2022/03/21 09:48:08;;;;;;;19.38;12.43;;;12.50;54.80;;;;;;5028457;28;20030;-69
2022/03/21 09:49:56;;;;;;;22.02;13.55;;;12.60;53.70;;;;;;5030626;28;20033;-69
2022/03/21 09:52:22;;;;;;;18.63;11.38;;;12.60;53.20;;;;;;5032726;28;20040;-69
2022/03/21 09:54:49;;;;;;;17.58;12.30;;;12.70;53.50;;;;;;5037114;28;20531;-69
2022/03/21 09:57:15;;;;;;;19.90;11.95;;;12.80;53.30;;;;;;5029835;28;20435;-70
2022/03/21 09:59:40;;;;;;;14.90;9.63;;;12.90;52.90;;;;;;5029626;28;20021;-70
2022/03/21 10:02:08;;;;;;;15.48;10.60;;;12.90;53.10;;;;;;5037962;28;20029;-69
2022/03/21 10:04:34;;;;;;;19.00;11.65;;;13.00;53.10;;;;;;5040805;28;20021;-69
2022/03/21 10:07:00;;;;;;;19.10;13.02;;;13.00;53.10;;;;;;5041585;28;20033;-69
2022/03/21 10:09:25;;;;;;;20.83;13.57;;;13.10;53.20;;;;;;5036663;28;20017;-69
2022/03/21 10:11:56;;;;;;;14.57;10.40;;;13.10;53.00;;;;;;5033332;28;20025;-70
2022/03/21 10:14:36;;;;;;;20.55;13.10;;;13.20;53.30;;;;;;5034106;28;20025;-69
2022/03/21 10:17:05;;;;;;;23.80;14.65;;;13.30;52.80;;;;;;5033810;28;20032;-69
2022/03/21 10:19:52;;;;;;;15.60;9.90;;;13.30;52.50;;;;;;5036836;28;20029;-70
2022/03/21 10:22:34;;;;;;;26.23;15.27;;;13.40;52.90;;;;;;5045436;28;20033;-69
2022/03/21 10:25:06;;;;;;;21.73;13.53;;;13.40;52.10;;;;;;5031925;28;20025;-69
2022/03/21 10:27:41;;;;;;;23.70;15.07;;;13.50;52.20;;;;;;5032583;28;20026;-70
2022/03/21 10:30:09;;;;;;;22.25;14.35;;;13.50;52.40;;;;;;5035167;28;20056;-69
2022/03/21 10:32:43;;;;;;;17.90;12.77;;;13.60;52.40;;;;;;5029723;28;20555;-69
2022/03/21 10:35:44;;;;;;;16.70;11.13;;;13.60;52.60;;;;;;5041420;28;20029;-69
2022/03/21 10:38:09;;;;;;;20.33;14.02;;;13.70;52.60;;;;;;5038233;28;20107;-70
2022/03/21 10:40:41;;;;;;;20.15;13.63;;;13.80;52.60;;;;;;5033304;28;20104;-69
2022/03/21 10:43:09;;;;;;;20.35;13.48;;;13.90;52.40;;;;;;5039859;28;20029;-69
2022/03/21 10:45:35;;;;;;;21.25;13.63;;;13.90;52.20;;;;;;5042545;28;20025;-71
2022/03/21 10:48:03;;;;;;;16.77;11.55;;;13.90;52.20;;;;;;5039841;28;20032;-70
2022/03/21 10:50:31;;;;;;;18.90;12.30;;;13.90;52.10;;;;;;5035165;28;20542;-70
2022/03/21 10:53:08;;;;;;;23.40;14.98;;;14.00;52.20;;;;;;5035707;28;20052;-71
2022/03/21 10:55:34;;;;;;;26.60;17.15;;;14.00;52.20;;;;;;5056380;28;20400;-69
2022/03/21 10:58:00;;;;;;;20.08;13.50;;;14.10;52.40;;;;;;5036478;28;20033;-70
2022/03/21 11:00:29;;;;;;;19.13;13.00;;;14.10;52.60;;;;;;5040215;28;20384;-70
2022/03/21 11:03:05;;;;;;;15.68;11.50;;;14.30;52.60;;;;;;5030852;28;20117;-69
2022/03/21 11:05:41;;;;;;;20.40;13.57;;;14.40;52.40;;;;;;5041634;28;20079;-71
2022/03/21 11:08:10;;;;;;;22.40;14.68;;;14.50;51.90;;;;;;5034712;28;20423;-69
2022/03/21 11:10:37;;;;;;;23.02;15.10;;;14.60;51.40;;;;;;5033109;28;20025;-69
2022/03/21 11:13:05;;;;;;;16.08;12.05;;;14.70;51.30;;;;;;5036561;28;20036;-70
2022/03/21 11:15:32;;;;;;;19.95;13.13;;;14.70;51.20;;;;;;5033001;28;20022;-69
2022/03/21 11:17:57;;;;;;;25.45;17.90;;;14.80;51.20;;;;;;5029100;28;20029;-71
2022/03/21 11:20:24;;;;;;;18.20;12.15;;;14.80;50.50;;;;;;5033033;28;20163;-69
2022/03/21 11:22:52;;;;;;;20.98;13.98;;;14.80;50.80;;;;;;5039043;28;20025;-70
2022/03/21 11:25:18;;;;;;;24.63;17.50;;;14.90;51.00;;;;;;5028552;28;20102;-70
2022/03/21 11:28:17;;;;;;;21.10;14.50;;;15.00;50.50;;;;;;5038892;28;20476;-71
2022/03/21 11:31:17;;;;;;;19.83;14.75;;;15.10;50.60;;;;;;5036863;28;20113;-70
2022/03/21 11:34:20;;;;;;;18.33;12.40;;;15.10;50.30;;;;;;5030122;28;20168;-70
2022/03/21 11:36:53;;;;;;;15.75;11.25;;;15.20;50.60;;;;;;5041395;28;20032;-70
2022/03/21 11:39:20;;;;;;;21.70;14.98;;;15.40;50.60;;;;;;5034604;28;20033;-71
2022/03/21 11:42:07;;;;;;;26.08;16.60;;;15.40;50.20;;;;;;5035874;28;20387;-70
2022/03/21 11:44:32;;;;;;;21.98;13.88;;;15.30;49.40;;;;;;5034481;28;20041;-70
2022/03/21 11:47:24;;;;;;;17.40;12.70;;;15.30;49.90;;;;;;5034235;28;20033;-70
2022/03/21 11:49:51;;;;;;;19.65;14.25;;;15.40;50.00;;;;;;5031365;28;20550;-70
2022/03/21 11:52:16;;;;;;;15.52;10.88;;;15.50;49.60;;;;;;5036567;28;20101;-70
2022/03/21 11:54:43;;;;;;;16.75;11.52;;;15.60;50.00;;;;;;5029429;28;20133;-70
2022/03/21 11:57:10;;;;;;;19.15;12.95;;;15.80;49.80;;;;;;5030326;28;20438;-70
2022/03/21 11:59:36;;;;;;;18.67;12.65;;;16.00;49.60;;;;;;5032409;28;20047;-70
2022/03/21 12:02:24;;;;;;;22.20;15.43;;;16.20;49.20;;;;;;5030540;28;20033;-70
2022/03/21 12:05:05;;;;;;;18.20;13.00;;;16.20;48.60;;;;;;4998745;28;20463;-70
2022/03/21 12:07:32;;;;;;;19.80;13.65;;;16.20;48.90;;;;;;5025093;28;20025;-70
2022/03/21 12:09:57;;;;;;;22.00;14.90;;;16.30;48.70;;;;;;5054856;28;20035;-70
2022/03/21 12:12:51;;;;;;;17.20;12.00;;;16.30;48.50;;;;;;5032484;28;20017;-70
2022/03/21 12:15:29;;;;;;;19.92;14.52;;;16.40;48.60;;;;;;5029830;28;20041;-70
2022/03/21 12:17:54;;;;;;;20.48;15.57;;;16.30;48.10;;;;;;5032169;28;20057;-69
2022/03/21 12:20:20;;;;;;;16.33;11.88;;;16.50;48.10;;;;;;5040014;28;20036;-70
2022/03/21 12:22:48;;;;;;;17.73;13.95;;;16.50;48.20;;;;;;5033114;28;20108;-70
2022/03/21 12:25:41;;;;;;;18.67;12.05;;;16.50;48.20;;;;;;5035287;28;20473;-70
2022/03/21 12:31:23;;;;;;;19.92;14.38;;;17.00;47.80;;;;;;5038762;28;20048;-70
2022/03/21 12:33:49;;;;;;;22.83;15.40;;;16.90;47.30;;;;;;5037075;28;20101;-70
2022/03/21 12:36:30;;;;;;;21.10;14.90;;;17.00;47.20;;;;;;5032967;28;20119;-70
2022/03/21 12:38:56;;;;;;;24.27;16.52;;;17.20;47.20;;;;;;5028880;28;20033;-70
2022/03/21 12:41:21;;;;;;;17.10;12.23;;;17.00;46.80;;;;;;5031448;28;20025;-70
2022/03/21 12:43:52;;;;;;;19.10;13.52;;;17.00;47.50;;;;;;5040030;28;20027;-70
2022/03/21 12:46:20;;;;;;;21.73;15.88;;;17.20;47.60;;;;;;5035453;28;20476;-70
2022/03/21 12:48:59;;;;;;;20.08;14.63;;;17.10;46.80;;;;;;5035116;28;20022;-71
2022/03/21 12:51:34;;;;;;;20.73;15.80;;;17.10;47.20;;;;;;5031269;28;20129;-70
2022/03/21 12:54:01;;;;;;;17.48;12.57;;;17.10;47.30;;;;;;5026934;28;20040;-70
2022/03/21 12:56:27;;;;;;;15.85;11.23;;;17.30;47.40;;;;;;5033773;28;20025;-70
2022/03/21 12:58:59;;;;;;;16.42;12.82;;;17.40;47.30;;;;;;5033217;28;20025;-70
2022/03/21 13:01:25;;;;;;;17.90;12.98;;;17.50;47.30;;;;;;5034746;28;20546;-70
2022/03/21 13:10:32;;;;;;;20.60;14.52;;;17.70;47.20;;;;;;5030636;28;20574;-70
2022/03/21 13:12:35;;;;;;;25.65;17.75;;;17.90;46.40;;;;;;5031335;28;20096;-69